Главная страница
METAR-TAF:

METAR-TAF

Аэропорты :

Ивало, Финляндия

широта: 68-37N, долгота: 027-25E, высота над уровнем моря: 147 м

Текущие метеонаблюдения

Эта сводка был подготовлена 35 минут назад, в 06:50 UTC
Ветер 4 Узел от южный-юго-западный
Температура 2°C
Влажность 51%
Давление 1032 hPa
Видимость 10 км и более
Нет облачности ниже 1500 м, и нет кучево-дождевой облачности

METAR: EFIV 290650Z AUTO 21004KT CAVOK 02/M07 Q1032

Время: 10:25 (07:25 UTC)

Прогноз

Эта сводка был подготовлена 1 час и 47 минут назад, в 05:38 UTC
Прогноз действительный с 29-го 06 UTC до 29-го 15 UTC
Ветер 5 Узел от юго-западный
Видимость 10 км и более
Нет облачности ниже 1500 м, и нет кучево-дождевой облачности

TAF: EFIV 290538Z 2906/2915 23005KT CAVOK

Метеонаблюдения и прогнозы для более 4000 аэропортов (сводки METAR и TAF).

Имеющиеся станции представлены на карте желтыми и красными точками.

Чтобы увидеть название станции, наведите на нее мышь.

Затем щелкните, чтобы увидеть метеонаблюдения и метеопрогнозы.

Управление картой: чтобы увеличить масштаб, щелкните зеленые кнопки с черным крестиком; чтобы уменьшить масштаб, щелкните зеленую кнопку с тире; для просмотра соседних карт щелкайте зеленые стрелки.


METAR-TAF: